CheckWX is a tool to help pilots better visualize weather data.  It is not intended as a substitute for an official pre-flight weather briefing.

16:00:26 UTC

KDOV METAR
Dover AFB Airport
Dover, Delaware, USA
Current

34 mins ago

KDOV 291526Z AUTO 19012KT 10SM OVC032 28/22 A3001 RMK AO2 SLP165 TSNO $
Observed
May-29 @ 15:26 UTC
Wind
  • 190° at 12 KTS
Visibility
Flight Rules
VFR
Cloud Levels
  • Overcast at 3,200' AGL
Temperature
28°C / 82°F
Dewpoint
22°C / 72°F
Humidity
70%
Altimeter
30.01" Hg
Pressure
1016.22 hPa
Previous

54 mins ago

KDOV 291506Z AUTO 18014G19KT 10SM BKN029 28/22 A3001 RMK AO2 BKN V SCT SLP165 TSNO $
Observed
May-29 @ 15:06 UTC
Wind
  • 180° at 14 KTS
  • Gusting to 19 KTS
Visibility
Flight Rules
MVFR
Cloud Levels
  • Broken at 2,900' AGL
Temperature
28°C / 82°F
Dewpoint
22°C / 72°F
Humidity
70%
Altimeter
30.01" Hg
Pressure
1016.22 hPa
Previous

1 hour ago

KDOV 291456Z AUTO 18013KT 10SM BKN031 27/22 A3002 RMK AO2 SLP169 T02740219 57011 $
Observed
May-29 @ 14:56 UTC
Wind
  • 180° at 13 KTS
Visibility
Flight Rules
VFR
Cloud Levels
  • Broken at 3,100' AGL
Temperature
27°C / 81°F
Dewpoint
22°C / 72°F
Humidity
74%
Altimeter
30.02" Hg
Pressure
1016.62 hPa